Time;durP1;ratioP1;P1;durP2;ratioP2;P2;SDS_P1;SDS_P2;PMS_P1;PMS_P2;Temp;Humidity;BMP_temperature;BMP_pressure;BME280_temperature;BME280_humidity;BME280_pressure;Samples;Min_cycle;Max_cycle;Signal;HPM_P1;HPM_P2
2021/08/30 00:00:42;;;;;;;3.63;3.28;;;14.70;98.00;;;;;;5074485;28;20231;-73
2021/08/30 00:03:08;;;;;;;4.15;3.67;;;14.70;97.70;;;;;;5064652;28;20176;-73
2021/08/30 00:05:33;;;;;;;3.50;3.30;;;14.60;98.00;;;;;;5066673;28;20291;-73
2021/08/30 00:07:59;;;;;;;3.75;3.45;;;14.60;97.90;;;;;;5074220;28;20208;-72
2021/08/30 00:10:25;;;;;;;3.08;2.88;;;14.60;98.10;;;;;;5068789;28;20193;-73
2021/08/30 00:12:51;;;;;;;3.30;3.00;;;14.60;97.80;;;;;;5066581;28;20198;-73
2021/08/30 00:15:17;;;;;;;3.63;2.90;;;14.60;97.80;;;;;;5070353;28;20189;-73
2021/08/30 00:17:45;;;;;;;3.08;2.97;;;14.70;97.70;;;;;;5073939;28;20179;-73
2021/08/30 00:20:18;;;;;;;3.95;3.60;;;14.60;97.80;;;;;;5068320;28;20179;-73
2021/08/30 00:22:44;;;;;;;3.72;3.42;;;14.60;97.80;;;;;;5066686;28;20458;-73
2021/08/30 00:25:10;;;;;;;4.00;3.20;;;14.60;97.90;;;;;;5070752;28;20195;-73
2021/08/30 00:27:36;;;;;;;3.92;3.55;;;14.60;97.80;;;;;;5061592;28;20577;-74
2021/08/30 00:30:03;;;;;;;3.17;3.08;;;14.60;97.60;;;;;;5061510;28;20175;-73
2021/08/30 00:32:29;;;;;;;3.00;2.85;;;14.60;97.50;;;;;;5070237;28;20617;-73
2021/08/30 00:34:55;;;;;;;4.03;3.47;;;14.60;97.70;;;;;;5072219;28;20283;-73
2021/08/30 00:37:20;;;;;;;3.67;3.47;;;14.50;97.70;;;;;;5065533;28;20235;-73
2021/08/30 00:39:50;;;;;;;3.53;3.38;;;14.50;97.60;;;;;;5072307;28;20182;-73
2021/08/30 00:42:16;;;;;;;3.22;3.03;;;14.50;97.70;;;;;;5068453;28;20175;-74
2021/08/30 00:44:42;;;;;;;3.45;3.25;;;14.50;97.70;;;;;;5068681;28;20190;-73
2021/08/30 00:47:09;;;;;;;3.38;3.17;;;14.40;97.80;;;;;;5066339;28;20184;-74
2021/08/30 00:49:35;;;;;;;3.17;2.95;;;14.40;97.80;;;;;;5072148;28;20185;-73
2021/08/30 00:52:01;;;;;;;2.80;2.60;;;14.40;97.90;;;;;;5068086;28;20648;-74
2021/08/30 00:54:27;;;;;;;3.30;3.10;;;14.40;98.10;;;;;;5072016;28;20183;-74
2021/08/30 00:56:53;;;;;;;3.10;2.88;;;14.30;98.00;;;;;;5062920;28;20560;-74
2021/08/30 00:59:19;;;;;;;2.63;2.42;;;14.30;98.00;;;;;;5072617;28;20175;-74
2021/08/30 01:01:45;;;;;;;3.03;2.83;;;14.30;98.10;;;;;;5068109;28;20178;-74
2021/08/30 01:04:13;;;;;;;2.95;2.80;;;14.30;98.00;;;;;;5062463;28;20256;-73
2021/08/30 01:07:04;;;;;;;3.67;3.35;;;14.30;97.90;;;;;;5060086;28;20595;-74
2021/08/30 01:09:45;;;;;;;3.15;2.95;;;14.30;97.90;;;;;;5065551;28;20222;-73
2021/08/30 01:12:25;;;;;;;2.15;2.15;;;14.30;97.90;;;;;;5066615;28;20178;-73
2021/08/30 01:14:57;;;;;;;2.30;2.20;;;14.20;97.90;;;;;;5067332;28;20698;-73
2021/08/30 01:17:24;;;;;;;2.80;2.70;;;14.20;97.90;;;;;;5065202;28;20671;-74
2021/08/30 01:20:09;;;;;;;3.05;2.85;;;14.20;97.80;;;;;;5070724;28;20586;-74
2021/08/30 01:22:38;;;;;;;2.72;2.60;;;14.20;97.70;;;;;;5071402;28;20178;-74
2021/08/30 01:25:05;;;;;;;2.40;2.28;;;14.20;97.90;;;;;;5066034;28;20202;-73
2021/08/30 01:27:31;;;;;;;2.40;2.25;;;14.20;97.80;;;;;;5071057;28;20231;-73
2021/08/30 01:30:10;;;;;;;2.95;2.78;;;14.20;97.70;;;;;;5071430;28;20182;-73
2021/08/30 01:32:41;;;;;;;2.78;2.58;;;14.20;97.60;;;;;;5081295;28;21107;-73
2021/08/30 01:35:15;;;;;;;5.03;2.47;;;14.10;97.70;;;;;;5066931;28;20214;-73
2021/08/30 01:37:44;;;;;;;2.75;2.53;;;14.10;97.70;;;;;;5069582;28;20278;-73
2021/08/30 01:40:13;;;;;;;2.60;2.40;;;14.10;97.90;;;;;;5071116;28;20656;-73
2021/08/30 01:42:41;;;;;;;2.88;2.67;;;14.10;97.70;;;;;;5074932;28;20255;-73
2021/08/30 01:45:19;;;;;;;2.17;2.08;;;14.10;97.80;;;;;;5075375;28;20199;-73
2021/08/30 01:47:45;;;;;;;2.60;2.40;;;14.10;97.80;;;;;;5070800;28;20262;-73
2021/08/30 01:50:15;;;;;;;2.15;2.05;;;14.00;98.10;;;;;;5071562;28;20230;-73
2021/08/30 01:52:42;;;;;;;2.25;2.15;;;14.00;98.00;;;;;;5071258;28;20314;-73
2021/08/30 02:00:43;;;;;;;2.35;2.25;;;14.00;98.00;;;;;;5070251;28;20185;-74
2021/08/30 02:03:21;;;;;;;2.42;2.33;;;14.00;97.80;;;;;;5069036;28;20261;-73
2021/08/30 02:05:49;;;;;;;1.88;1.77;;;14.00;97.90;;;;;;5068518;28;20202;-73
2021/08/30 02:08:15;;;;;;;2.35;2.25;;;14.00;97.80;;;;;;5067748;28;20660;-73
2021/08/30 02:10:46;;;;;;;2.30;2.10;;;14.00;97.60;;;;;;5077089;28;20181;-73
2021/08/30 02:13:13;;;;;;;1.90;1.80;;;14.00;97.80;;;;;;5068345;28;20672;-73
2021/08/30 02:15:40;;;;;;;1.73;1.63;;;14.00;97.40;;;;;;5061813;28;20182;-73
2021/08/30 02:18:30;;;;;;;1.48;1.48;;;14.00;97.50;;;;;;5069280;28;20211;-74
2021/08/30 02:20:59;;;;;;;2.67;1.85;;;14.00;97.40;;;;;;5013791;28;20239;-73
2021/08/30 02:23:31;;;;;;;1.50;1.40;;;14.00;97.50;;;;;;5010869;28;20232;-73
2021/08/30 02:26:02;;;;;;;1.77;1.67;;;14.00;97.30;;;;;;5013780;28;20243;-72
2021/08/30 02:28:29;;;;;;;1.55;1.55;;;14.00;97.40;;;;;;5016110;28;20723;-73
2021/08/30 02:30:55;;;;;;;1.27;1.27;;;14.00;97.20;;;;;;5013646;28;20287;-73
2021/08/30 02:33:23;;;;;;;1.45;1.38;;;13.90;97.10;;;;;;5010790;28;20219;-73
2021/08/30 02:35:49;;;;;;;1.42;1.42;;;13.90;97.00;;;;;;5012305;28;20193;-73
2021/08/30 02:38:16;;;;;;;1.40;1.38;;;13.90;96.80;;;;;;5011795;28;20195;-73
2021/08/30 02:40:42;;;;;;;1.50;1.40;;;13.90;96.70;;;;;;5011127;28;20691;-73
2021/08/30 02:43:09;;;;;;;1.50;1.50;;;13.90;96.60;;;;;;5015368;28;20271;-73
2021/08/30 02:45:37;;;;;;;1.52;1.42;;;13.90;96.40;;;;;;5014990;28;20228;-73
2021/08/30 02:48:03;;;;;;;1.17;1.17;;;13.90;96.20;;;;;;5012815;28;21420;-73
2021/08/30 02:50:31;;;;;;;1.60;1.50;;;13.90;95.90;;;;;;5010908;28;20187;-73
2021/08/30 02:52:59;;;;;;;1.35;1.35;;;13.90;95.80;;;;;;5010236;28;21025;-73
2021/08/30 02:55:25;;;;;;;1.38;1.27;;;13.90;95.50;;;;;;5011171;28;20189;-73
2021/08/30 02:57:51;;;;;;;2.60;1.23;;;13.90;95.50;;;;;;5037581;28;20197;-73
2021/08/30 03:00:18;;;;;;;0.90;0.88;;;13.90;95.60;;;;;;5072474;28;20182;-73
2021/08/30 03:02:46;;;;;;;1.25;1.25;;;13.90;95.40;;;;;;5075803;28;20187;-73
2021/08/30 03:05:13;;;;;;;1.05;1.05;;;13.80;95.70;;;;;;5062822;28;20602;-73
2021/08/30 03:07:39;;;;;;;1.40;1.30;;;13.80;95.60;;;;;;5070438;28;20201;-73
2021/08/30 03:10:06;;;;;;;0.90;0.90;;;13.80;95.70;;;;;;5064328;28;21039;-73
2021/08/30 03:12:54;;;;;;;2.58;1.63;;;13.80;95.60;;;;;;5074306;28;20180;-73
2021/08/30 03:15:24;;;;;;;1.23;1.23;;;13.80;95.50;;;;;;5074795;28;20186;-73
2021/08/30 03:17:51;;;;;;;1.40;1.13;;;13.80;95.50;;;;;;5072939;28;20613;-73
2021/08/30 03:20:24;;;;;;;1.08;1.08;;;13.80;95.60;;;;;;5066534;28;20601;-72
2021/08/30 03:22:51;;;;;;;1.40;1.30;;;13.80;95.40;;;;;;5064153;28;20274;-73
2021/08/30 03:25:19;;;;;;;1.30;1.30;;;13.70;95.30;;;;;;5070601;28;20734;-72
2021/08/30 03:27:46;;;;;;;1.13;1.13;;;13.80;95.10;;;;;;5062386;28;20206;-72
2021/08/30 03:30:15;;;;;;;1.60;0.80;;;13.80;95.10;;;;;;5067299;28;20179;-73
2021/08/30 03:32:43;;;;;;;2.05;1.10;;;13.80;95.10;;;;;;5068259;28;20183;-72
2021/08/30 03:35:11;;;;;;;1.10;1.10;;;13.70;95.00;;;;;;5067979;28;20191;-73
2021/08/30 03:37:41;;;;;;;1.02;1.02;;;13.80;94.90;;;;;;5070961;28;20184;-73
2021/08/30 03:40:09;;;;;;;1.50;1.40;;;13.80;94.80;;;;;;5071142;28;21805;-73
2021/08/30 03:42:36;;;;;;;1.40;1.30;;;13.70;94.50;;;;;;5071106;28;20187;-73
2021/08/30 03:45:02;;;;;;;0.95;0.95;;;13.70;94.50;;;;;;5066599;28;20184;-73
2021/08/30 03:47:28;;;;;;;1.50;1.40;;;13.70;94.40;;;;;;5066977;28;20270;-73
2021/08/30 03:49:55;;;;;;;1.25;1.15;;;13.70;94.30;;;;;;5066837;28;20195;-72
2021/08/30 03:52:22;;;;;;;1.30;1.30;;;13.70;94.20;;;;;;5060872;28;20614;-73
2021/08/30 03:54:48;;;;;;;1.20;1.20;;;13.70;94.00;;;;;;5070002;28;20190;-72
2021/08/30 03:57:16;;;;;;;1.83;1.23;;;13.70;94.00;;;;;;5068224;28;20236;-73
2021/08/30 03:59:48;;;;;;;1.27;1.17;;;13.70;94.00;;;;;;5067242;28;21734;-73
2021/08/30 04:02:15;;;;;;;8.18;1.50;;;13.70;93.80;;;;;;5068223;28;20201;-73
2021/08/30 04:04:43;;;;;;;1.02;1.00;;;13.70;94.00;;;;;;5070857;28;20233;-73
2021/08/30 04:07:10;;;;;;;1.15;1.10;;;13.70;94.00;;;;;;5069241;28;20242;-72
2021/08/30 04:09:37;;;;;;;1.17;1.17;;;13.70;93.80;;;;;;5067585;28;20621;-71
2021/08/30 04:12:04;;;;;;;2.53;1.52;;;13.70;93.70;;;;;;5064904;28;20241;-72
2021/08/30 04:14:30;;;;;;;1.42;1.42;;;13.70;93.30;;;;;;5059393;28;20194;-72
2021/08/30 04:16:56;;;;;;;1.20;1.20;;;13.80;93.60;;;;;;5065406;28;20217;-71
2021/08/30 04:19:22;;;;;;;1.27;1.27;;;13.80;93.50;;;;;;5062204;28;20218;-68
2021/08/30 04:21:48;;;;;;;1.52;1.52;;;13.80;93.30;;;;;;5069858;28;20177;-67
2021/08/30 04:24:14;;;;;;;1.77;1.67;;;13.80;93.10;;;;;;5070823;28;20174;-67
2021/08/30 04:26:40;;;;;;;1.60;1.50;;;13.80;93.10;;;;;;5063422;28;20227;-69
2021/08/30 04:29:06;;;;;;;1.58;1.58;;;13.80;93.10;;;;;;5070659;28;20207;-67
2021/08/30 04:31:32;;;;;;;2.85;1.45;;;13.80;92.80;;;;;;5065668;28;20210;-67
2021/08/30 04:33:59;;;;;;;1.45;1.45;;;13.80;92.90;;;;;;5071227;28;21611;-67
2021/08/30 04:36:24;;;;;;;1.58;1.27;;;13.90;92.90;;;;;;5071151;28;20179;-68
2021/08/30 04:38:51;;;;;;;1.63;1.50;;;13.90;92.90;;;;;;5064023;28;20580;-68
2021/08/30 04:41:16;;;;;;;1.05;1.05;;;13.90;92.80;;;;;;5066711;28;20187;-69
2021/08/30 04:43:44;;;;;;;1.92;1.83;;;14.00;92.70;;;;;;5069418;28;20569;-70
2021/08/30 04:46:10;;;;;;;1.55;1.45;;;14.00;92.60;;;;;;5075607;28;20202;-67
2021/08/30 04:48:36;;;;;;;1.90;1.80;;;14.00;92.60;;;;;;5068299;28;20190;-70
2021/08/30 04:51:02;;;;;;;1.33;1.33;;;14.00;92.40;;;;;;5074348;28;20256;-70
2021/08/30 04:53:28;;;;;;;1.75;1.65;;;14.00;92.30;;;;;;5073558;28;20189;-70
2021/08/30 04:55:54;;;;;;;2.00;1.90;;;14.10;92.30;;;;;;5075758;28;20191;-69
2021/08/30 04:58:20;;;;;;;2.35;2.15;;;14.10;92.30;;;;;;5066640;28;20185;-70
2021/08/30 05:00:46;;;;;;;4.03;1.67;;;14.20;92.30;;;;;;5072132;28;20186;-68
2021/08/30 05:03:11;;;;;;;1.77;1.67;;;14.20;92.30;;;;;;5075185;28;20182;-68
2021/08/30 05:05:37;;;;;;;2.78;1.90;;;14.30;91.80;;;;;;5069322;28;20220;-68
2021/08/30 05:08:03;;;;;;;1.85;1.75;;;14.30;91.40;;;;;;5071231;28;20261;-68
2021/08/30 05:10:29;;;;;;;2.42;1.95;;;14.30;91.20;;;;;;5070418;28;20182;-70
2021/08/30 05:12:54;;;;;;;2.25;2.15;;;14.30;91.10;;;;;;5072626;28;20844;-69
2021/08/30 05:15:20;;;;;;;2.10;2.00;;;14.40;90.90;;;;;;5071361;28;20193;-70
2021/08/30 05:17:46;;;;;;;1.70;1.70;;;14.40;91.10;;;;;;5076098;28;20679;-70
2021/08/30 05:20:12;;;;;;;1.58;1.50;;;14.50;91.00;;;;;;5067840;28;20312;-71
2021/08/30 05:22:38;;;;;;;1.73;1.63;;;14.50;91.30;;;;;;5068671;28;20190;-71
2021/08/30 05:25:04;;;;;;;3.47;2.10;;;14.60;90.80;;;;;;5063660;28;20183;-70
2021/08/30 05:27:30;;;;;;;2.47;2.28;;;14.60;90.80;;;;;;5064899;28;20207;-70
2021/08/30 05:29:55;;;;;;;1.90;1.90;;;14.70;90.60;;;;;;5066044;28;20180;-71
2021/08/30 05:32:21;;;;;;;2.28;2.17;;;14.70;90.30;;;;;;5072799;28;20647;-67
2021/08/30 05:34:47;;;;;;;1.77;1.67;;;14.80;90.50;;;;;;5075506;28;20175;-68
2021/08/30 05:37:13;;;;;;;1.80;1.70;;;14.90;89.80;;;;;;5072564;28;20186;-69
2021/08/30 05:39:39;;;;;;;2.15;2.05;;;14.90;89.60;;;;;;5065980;28;20182;-72
2021/08/30 05:42:05;;;;;;;2.03;2.03;;;15.00;89.30;;;;;;5068857;28;20240;-72
2021/08/30 05:44:30;;;;;;;2.38;2.35;;;15.00;89.00;;;;;;5077265;28;20612;-72
2021/08/30 05:46:56;;;;;;;2.00;2.00;;;15.00;89.10;;;;;;5076294;28;20203;-72
2021/08/30 05:49:22;;;;;;;1.95;1.85;;;15.00;88.30;;;;;;5072143;28;20178;-71
2021/08/30 05:51:48;;;;;;;2.50;2.40;;;15.00;88.60;;;;;;5072839;28;20183;-71
2021/08/30 05:54:14;;;;;;;2.45;2.35;;;15.10;88.80;;;;;;5076403;28;20178;-71
2021/08/30 05:56:42;;;;;;;1.60;1.60;;;15.10;88.30;;;;;;5074161;28;20695;-70
2021/08/30 05:59:07;;;;;;;1.90;1.80;;;15.10;88.00;;;;;;5074273;28;20183;-71
2021/08/30 06:01:36;;;;;;;1.85;1.75;;;15.20;88.00;;;;;;5073163;28;20195;-71
2021/08/30 06:04:02;;;;;;;2.20;2.10;;;15.20;88.10;;;;;;5069263;28;20664;-74
2021/08/30 06:06:28;;;;;;;3.08;1.95;;;15.20;88.00;;;;;;5069507;28;20351;-74
2021/08/30 06:08:54;;;;;;;3.53;2.00;;;15.30;87.90;;;;;;5071662;28;20277;-75
2021/08/30 06:11:20;;;;;;;2.13;2.00;;;15.30;88.00;;;;;;5076028;28;20199;-74
2021/08/30 06:13:45;;;;;;;1.95;1.92;;;15.30;88.00;;;;;;5067952;28;20212;-74
2021/08/30 06:16:11;;;;;;;1.73;1.63;;;15.40;87.70;;;;;;5071958;28;20183;-72
2021/08/30 06:18:37;;;;;;;1.80;1.80;;;15.40;87.20;;;;;;5074042;28;20183;-74
2021/08/30 06:21:02;;;;;;;1.67;1.67;;;15.40;87.30;;;;;;5075451;28;20185;-74
2021/08/30 06:23:30;;;;;;;1.85;1.75;;;15.50;87.30;;;;;;5067016;28;20179;-74
2021/08/30 06:25:57;;;;;;;2.35;2.25;;;15.50;86.90;;;;;;5068863;28;20242;-74
2021/08/30 06:28:23;;;;;;;2.45;1.85;;;15.50;87.30;;;;;;5067934;28;20189;-75
2021/08/30 06:30:48;;;;;;;2.78;2.00;;;15.60;87.10;;;;;;5069986;28;20183;-74
2021/08/30 06:33:14;;;;;;;2.40;1.85;;;15.60;86.80;;;;;;5067493;28;20265;-74
2021/08/30 06:35:42;;;;;;;1.95;1.88;;;15.60;86.80;;;;;;5067157;28;20236;-75
2021/08/30 06:38:10;;;;;;;1.98;1.70;;;15.70;86.50;;;;;;5079519;28;20673;-75
2021/08/30 06:40:35;;;;;;;2.75;1.70;;;15.80;86.90;;;;;;5068179;28;20203;-74
2021/08/30 06:43:01;;;;;;;2.05;1.90;;;15.80;86.70;;;;;;5072857;28;20217;-74
2021/08/30 06:45:28;;;;;;;4.35;1.85;;;15.90;86.70;;;;;;5071511;28;20902;-75
2021/08/30 06:47:54;;;;;;;1.92;1.83;;;15.90;86.10;;;;;;5070556;28;20691;-75
2021/08/30 06:50:21;;;;;;;1.75;1.75;;;16.00;86.20;;;;;;5068975;28;20892;-75
2021/08/30 06:52:47;;;;;;;1.83;1.73;;;16.00;86.20;;;;;;5069258;28;20920;-70
2021/08/30 06:55:13;;;;;;;1.65;1.55;;;16.10;86.10;;;;;;5069037;28;20214;-75
2021/08/30 06:57:39;;;;;;;1.83;1.80;;;16.10;85.60;;;;;;5067633;28;20183;-75
2021/08/30 07:00:06;;;;;;;1.98;1.88;;;16.20;86.00;;;;;;5069274;28;20184;-76
2021/08/30 07:02:32;;;;;;;2.45;2.35;;;16.20;85.90;;;;;;5065967;28;20536;-75
2021/08/30 07:04:58;;;;;;;1.92;1.83;;;16.30;85.60;;;;;;5067533;28;20240;-76
2021/08/30 07:07:23;;;;;;;2.08;1.98;;;16.30;85.40;;;;;;5067040;28;20250;-76
2021/08/30 07:09:49;;;;;;;2.28;2.10;;;16.40;85.20;;;;;;5060359;28;20243;-75
2021/08/30 07:12:15;;;;;;;2.10;1.90;;;16.40;85.00;;;;;;5060805;28;20182;-76
2021/08/30 07:14:41;;;;;;;1.92;1.92;;;16.40;84.70;;;;;;5068552;28;20306;-71
2021/08/30 07:17:06;;;;;;;1.95;1.85;;;16.50;85.20;;;;;;5065545;28;20670;-73
2021/08/30 07:19:32;;;;;;;2.25;2.10;;;16.50;85.00;;;;;;5067935;28;20186;-73
2021/08/30 07:21:59;;;;;;;2.78;1.95;;;16.60;85.40;;;;;;5068602;28;20174;-73
2021/08/30 07:24:26;;;;;;;2.10;2.00;;;16.60;84.80;;;;;;5069921;28;20190;-74
2021/08/30 07:26:51;;;;;;;1.23;1.23;;;16.70;85.00;;;;;;5070574;28;20218;-73
2021/08/30 07:29:17;;;;;;;2.10;2.00;;;16.80;84.70;;;;;;5068428;28;20180;-73
2021/08/30 07:31:43;;;;;;;2.05;1.95;;;16.90;84.40;;;;;;5069116;28;20194;-73
2021/08/30 07:34:08;;;;;;;2.45;2.13;;;16.90;84.20;;;;;;5071001;28;20644;-73
2021/08/30 07:36:34;;;;;;;2.00;1.85;;;17.00;84.00;;;;;;5073542;28;20260;-73
2021/08/30 07:39:01;;;;;;;1.67;1.67;;;17.00;84.40;;;;;;5070417;28;20182;-73
2021/08/30 07:41:27;;;;;;;2.17;2.08;;;17.10;84.50;;;;;;5067067;28;20192;-73
2021/08/30 07:43:53;;;;;;;1.52;1.52;;;17.20;84.10;;;;;;5067459;28;20182;-73
2021/08/30 07:46:20;;;;;;;1.92;1.83;;;17.30;83.70;;;;;;5064636;28;20294;-75
2021/08/30 07:48:50;;;;;;;2.22;1.80;;;17.40;83.30;;;;;;5072646;28;20735;-73
2021/08/30 07:51:17;;;;;;;1.52;1.52;;;17.50;83.10;;;;;;5072715;28;20174;-73
2021/08/30 07:53:43;;;;;;;2.10;2.00;;;17.50;83.00;;;;;;5067007;28;20213;-73
2021/08/30 07:56:10;;;;;;;1.67;1.65;;;17.60;82.70;;;;;;5070128;28;20388;-73
2021/08/30 07:58:35;;;;;;;4.72;2.30;;;17.70;82.70;;;;;;5065454;28;20186;-73
2021/08/30 08:01:01;;;;;;;2.70;1.85;;;17.80;83.00;;;;;;5071402;28;20190;-73
2021/08/30 08:03:27;;;;;;;2.28;2.17;;;17.80;82.80;;;;;;5069688;28;20673;-73
2021/08/30 08:05:53;;;;;;;1.77;1.77;;;17.90;83.20;;;;;;5066300;28;20447;-73
2021/08/30 08:08:18;;;;;;;2.30;2.20;;;18.00;82.90;;;;;;5067325;28;20183;-73
2021/08/30 08:10:44;;;;;;;1.60;1.60;;;18.10;82.50;;;;;;5061333;28;20181;-73
2021/08/30 08:13:10;;;;;;;2.22;2.13;;;18.10;82.10;;;;;;5065292;28;20696;-73
2021/08/30 08:15:37;;;;;;;1.70;1.70;;;18.20;82.50;;;;;;5067645;28;20958;-73
2021/08/30 08:18:04;;;;;;;2.05;1.95;;;18.30;82.00;;;;;;5071136;28;20179;-73
2021/08/30 08:20:31;;;;;;;2.17;2.15;;;18.40;82.30;;;;;;5067601;28;20183;-73
2021/08/30 08:22:58;;;;;;;2.35;2.15;;;18.50;81.70;;;;;;5069513;28;20183;-73
2021/08/30 08:25:24;;;;;;;2.15;2.05;;;18.60;81.10;;;;;;5064201;28;20212;-73
2021/08/30 08:27:50;;;;;;;1.92;1.83;;;18.60;80.50;;;;;;5073258;28;20178;-73
2021/08/30 08:30:15;;;;;;;2.08;1.98;;;18.70;80.50;;;;;;5067580;28;20651;-73
2021/08/30 08:32:42;;;;;;;2.42;2.33;;;18.80;80.30;;;;;;5058090;28;20183;-73
2021/08/30 08:35:09;;;;;;;2.17;1.98;;;19.00;80.50;;;;;;5059007;28;20179;-73
2021/08/30 08:37:35;;;;;;;1.95;1.92;;;19.10;79.80;;;;;;5066560;28;20179;-73
2021/08/30 08:40:02;;;;;;;2.53;2.42;;;19.20;79.50;;;;;;5060185;28;20186;-73
2021/08/30 08:42:29;;;;;;;2.20;2.10;;;19.30;78.10;;;;;;5066645;28;20265;-73
2021/08/30 08:44:54;;;;;;;2.30;2.20;;;19.40;79.10;;;;;;5062133;28;20604;-73
2021/08/30 08:47:20;;;;;;;2.78;2.53;;;19.50;78.90;;;;;;5068305;28;20215;-74
2021/08/30 08:49:52;;;;;;;2.75;2.67;;;19.70;79.30;;;;;;5067064;28;20177;-73
2021/08/30 08:52:22;;;;;;;2.17;2.17;;;19.90;77.70;;;;;;5071518;28;20183;-74
2021/08/30 08:54:48;;;;;;;2.35;2.25;;;20.00;78.50;;;;;;5070495;28;20179;-73
2021/08/30 08:57:15;;;;;;;1.90;1.90;;;20.30;78.20;;;;;;5076826;28;20206;-73
2021/08/30 08:59:54;;;;;;;4.93;2.55;;;20.60;76.70;;;;;;5073841;28;20271;-73
2021/08/30 09:02:28;;;;;;;4.40;2.22;;;20.90;75.60;;;;;;5065949;28;20264;-73
2021/08/30 09:04:55;;;;;;;2.78;2.67;;;21.50;74.60;;;;;;5071458;28;20765;-73
2021/08/30 09:07:42;;;;;;;3.20;3.00;;;22.10;72.20;;;;;;5067335;28;20543;-72
2021/08/30 09:10:14;;;;;;;2.60;2.50;;;22.60;71.10;;;;;;5069743;28;20553;-72
2021/08/30 09:12:42;;;;;;;5.03;3.03;;;23.10;69.90;;;;;;5069825;28;20278;-73
2021/08/30 09:15:24;;;;;;;2.75;2.65;;;23.70;68.50;;;;;;5067800;28;20191;-73
2021/08/30 09:17:54;;;;;;;4.63;2.78;;;24.40;67.30;;;;;;5068506;28;20178;-72
2021/08/30 09:20:26;;;;;;;2.90;2.80;;;25.20;67.80;;;;;;5073080;28;20179;-72
2021/08/30 09:22:52;;;;;;;2.88;2.72;;;25.80;65.40;;;;;;5068541;28;20178;-72
2021/08/30 09:25:19;;;;;;;2.75;2.58;;;26.20;64.00;;;;;;5069119;28;20258;-73
2021/08/30 09:27:49;;;;;;;2.95;2.85;;;26.50;62.20;;;;;;5064637;28;20246;-73
2021/08/30 09:30:17;;;;;;;3.25;3.08;;;26.80;62.00;;;;;;5065706;28;20170;-73
2021/08/30 09:32:47;;;;;;;2.80;2.60;;;27.20;62.20;;;;;;5069929;28;20193;-72
2021/08/30 09:35:14;;;;;;;3.15;2.95;;;27.70;62.90;;;;;;5070870;28;20872;-73
2021/08/30 09:37:42;;;;;;;2.75;2.55;;;28.30;61.80;;;;;;5075454;28;20178;-74
2021/08/30 09:40:11;;;;;;;2.60;2.50;;;28.80;60.00;;;;;;5070410;28;20186;-73
2021/08/30 09:42:45;;;;;;;2.38;2.38;;;29.30;59.50;;;;;;5071634;28;20414;-73
2021/08/30 09:45:16;;;;;;;2.83;2.63;;;29.60;59.20;;;;;;5072250;28;20237;-72
2021/08/30 09:48:12;;;;;;;3.25;3.05;;;29.90;58.50;;;;;;5071926;28;20188;-72
2021/08/30 09:50:43;;;;;;;2.35;2.25;;;30.30;55.70;;;;;;5067203;28;20194;-73
2021/08/30 09:53:08;;;;;;;3.05;2.75;;;30.50;57.20;;;;;;5071485;28;20186;-72
2021/08/30 09:55:36;;;;;;;2.75;2.70;;;30.70;55.70;;;;;;5072550;28;20187;-72
2021/08/30 09:58:03;;;;;;;3.10;2.80;;;30.80;55.20;;;;;;5070859;28;20311;-73
2021/08/30 10:00:29;;;;;;;2.58;2.47;;;31.00;56.40;;;;;;5071569;28;20182;-72
2021/08/30 10:02:59;;;;;;;2.60;2.50;;;31.10;55.30;;;;;;5070039;28;20170;-72
2021/08/30 10:05:27;;;;;;;2.97;2.78;;;31.10;54.80;;;;;;5070912;28;20214;-73
2021/08/30 10:07:53;;;;;;;2.88;2.70;;;31.40;55.50;;;;;;5071892;28;20278;-73
2021/08/30 10:10:20;;;;;;;3.92;2.90;;;31.70;55.00;;;;;;5074133;28;20221;-74
2021/08/30 10:12:48;;;;;;;3.00;2.90;;;32.10;55.30;;;;;;5070239;28;20231;-73
2021/08/30 10:15:21;;;;;;;3.50;3.20;;;32.30;55.00;;;;;;5073100;28;20194;-73
2021/08/30 10:17:48;;;;;;;3.03;2.92;;;32.50;55.60;;;;;;5073079;28;20567;-72
2021/08/30 10:20:25;;;;;;;2.58;2.53;;;33.00;54.20;;;;;;5071495;28;20874;-73
2021/08/30 10:23:21;;;;;;;2.58;2.47;;;33.50;51.70;;;;;;5069123;28;20185;-73
2021/08/30 10:26:00;;;;;;;2.25;2.25;;;34.10;49.40;;;;;;5070121;28;20220;-73
2021/08/30 10:28:40;;;;;;;2.92;2.70;;;34.40;51.70;;;;;;5074367;28;20269;-73
2021/08/30 10:31:23;;;;;;;2.30;2.20;;;34.80;51.80;;;;;;5063480;28;20592;-73
2021/08/30 10:33:51;;;;;;;2.72;2.63;;;35.30;50.40;;;;;;5065882;28;20179;-72
2021/08/30 10:36:19;;;;;;;2.47;2.47;;;35.60;51.90;;;;;;5060375;28;21172;-73
2021/08/30 10:39:00;;;;;;;2.30;2.30;;;36.00;51.80;;;;;;5060677;28;20274;-73
2021/08/30 10:41:42;;;;;;;2.53;2.53;;;36.20;48.30;;;;;;5062368;28;20599;-76
2021/08/30 10:44:21;;;;;;;2.55;2.45;;;36.30;47.60;;;;;;5066780;28;20190;-76
2021/08/30 10:46:50;;;;;;;3.03;2.85;;;36.40;47.90;;;;;;5062913;28;20215;-76
2021/08/30 10:49:30;;;;;;;2.30;2.30;;;36.50;46.90;;;;;;5067755;28;20206;-76
2021/08/30 10:52:12;;;;;;;2.35;2.35;;;36.80;47.90;;;;;;5064959;28;20195;-74
2021/08/30 10:54:58;;;;;;;2.05;2.05;;;37.00;47.30;;;;;;5065105;28;20178;-76
2021/08/30 10:57:36;;;;;;;2.30;2.20;;;37.20;46.70;;;;;;5063387;28;20190;-76
2021/08/30 11:00:05;;;;;;;2.67;2.58;;;37.50;47.60;;;;;;5060212;28;20204;-76
2021/08/30 11:02:48;;;;;;;2.83;2.80;;;37.60;47.10;;;;;;5065479;28;20189;-76
2021/08/30 11:05:18;;;;;;;2.67;2.35;;;37.80;46.20;;;;;;5064484;28;20183;-76
2021/08/30 11:07:43;;;;;;;2.75;2.17;;;38.10;48.90;;;;;;5068982;28;20208;-76
2021/08/30 11:10:09;;;;;;;2.90;2.80;;;38.40;47.40;;;;;;5066774;28;20660;-76
2021/08/30 11:12:42;;;;;;;2.83;2.72;;;38.40;47.90;;;;;;5065747;28;20183;-76
2021/08/30 11:15:08;;;;;;;2.90;2.80;;;38.20;48.00;;;;;;5066308;28;20190;-76
2021/08/30 11:17:35;;;;;;;2.97;2.70;;;37.90;46.30;;;;;;5065549;28;20194;-75
2021/08/30 11:20:03;;;;;;;2.72;2.72;;;37.60;46.70;;;;;;5064533;28;20177;-76
2021/08/30 11:22:29;;;;;;;3.08;2.85;;;37.60;48.30;;;;;;5070743;28;20568;-75
2021/08/30 11:24:57;;;;;;;2.70;2.60;;;37.30;45.70;;;;;;5063887;28;20178;-75
2021/08/30 11:27:30;;;;;;;3.00;2.80;;;37.10;48.90;;;;;;5068993;28;20828;-74
2021/08/30 11:30:00;;;;;;;2.50;2.50;;;37.20;48.30;;;;;;5066103;28;20822;-75
2021/08/30 11:32:32;;;;;;;2.33;2.33;;;37.40;48.60;;;;;;5070658;28;20181;-76
2021/08/30 11:35:00;;;;;;;2.90;2.85;;;37.80;47.60;;;;;;5069477;28;20210;-75
2021/08/30 11:37:28;;;;;;;2.83;2.72;;;38.00;46.60;;;;;;5071613;28;20216;-75
2021/08/30 11:39:56;;;;;;;2.90;2.80;;;38.20;46.90;;;;;;5069051;28;20193;-75
2021/08/30 11:42:26;;;;;;;2.63;2.42;;;38.30;44.60;;;;;;5074456;28;20185;-75
2021/08/30 11:44:54;;;;;;;3.25;2.80;;;38.50;48.00;;;;;;5070555;28;20182;-75
2021/08/30 11:47:21;;;;;;;2.50;2.40;;;38.80;46.90;;;;;;5066707;28;20263;-76
2021/08/30 11:49:49;;;;;;;2.45;2.35;;;39.00;44.30;;;;;;5067536;28;20182;-75
2021/08/30 11:52:21;;;;;;;2.78;2.58;;;39.20;46.30;;;;;;5062554;28;20179;-75
2021/08/30 11:55:07;;;;;;;3.22;2.40;;;39.40;46.70;;;;;;5059404;28;20244;-76
2021/08/30 11:57:44;;;;;;;2.65;2.65;;;39.60;43.00;;;;;;5067915;28;20269;-76
2021/08/30 12:00:15;;;;;;;2.75;2.55;;;39.80;43.60;;;;;;5068100;28;20260;-76
2021/08/30 12:02:41;;;;;;;2.25;2.25;;;39.90;46.30;;;;;;5064072;28;20193;-75
2021/08/30 12:05:08;;;;;;;2.20;2.10;;;40.10;45.90;;;;;;5070694;28;20191;-74
2021/08/30 12:07:35;;;;;;;3.28;3.17;;;40.20;45.90;;;;;;5067811;28;20268;-73
2021/08/30 12:10:05;;;;;;;2.60;2.50;;;40.20;45.40;;;;;;5065145;28;20174;-74
2021/08/30 12:12:34;;;;;;;2.30;2.20;;;40.10;45.40;;;;;;5062897;28;20787;-73
2021/08/30 12:15:04;;;;;;;2.70;2.53;;;39.90;44.90;;;;;;5064511;28;20190;-73
2021/08/30 12:17:35;;;;;;;2.85;2.67;;;39.70;45.30;;;;;;5060175;28;20175;-74
2021/08/30 12:20:13;;;;;;;2.70;2.60;;;39.50;45.40;;;;;;5059687;28;20193;-74
2021/08/30 12:22:49;;;;;;;2.05;2.05;;;39.30;43.60;;;;;;5055917;28;20607;-74
2021/08/30 12:25:20;;;;;;;2.53;2.42;;;39.20;45.40;;;;;;5055926;28;20183;-73
2021/08/30 12:27:47;;;;;;;2.50;2.50;;;39.30;45.50;;;;;;5055795;28;20261;-74
2021/08/30 12:30:15;;;;;;;2.42;2.40;;;39.40;44.10;;;;;;5054907;28;20232;-73
2021/08/30 12:33:06;;;;;;;2.60;2.50;;;39.50;44.80;;;;;;5068655;28;20182;-74
2021/08/30 12:35:36;;;;;;;2.50;2.42;;;39.60;43.20;;;;;;5067863;28;20178;-73
2021/08/30 12:38:17;;;;;;;2.58;2.58;;;39.70;44.10;;;;;;5064725;28;20742;-73
2021/08/30 12:40:55;;;;;;;2.67;2.58;;;40.00;43.50;;;;;;5074740;28;20577;-74
2021/08/30 12:43:21;;;;;;;2.05;2.05;;;40.20;43.50;;;;;;5071530;28;20193;-72
2021/08/30 12:45:49;;;;;;;2.75;2.65;;;40.40;44.60;;;;;;5067078;28;20210;-73
2021/08/30 12:48:15;;;;;;;2.90;2.72;;;40.50;44.10;;;;;;5068184;28;20174;-73
2021/08/30 12:50:43;;;;;;;2.40;2.33;;;40.40;45.70;;;;;;5064795;28;20190;-73
2021/08/30 12:53:09;;;;;;;2.97;2.88;;;40.50;43.00;;;;;;5067417;28;20261;-73
2021/08/30 12:55:36;;;;;;;2.35;2.35;;;40.30;44.90;;;;;;5071806;28;20197;-73
2021/08/30 12:58:02;;;;;;;2.13;2.13;;;40.20;44.00;;;;;;5071858;28;20268;-73
2021/08/30 13:00:28;;;;;;;2.63;2.53;;;40.20;44.00;;;;;;5069276;28;20177;-73